sensor_id;sensor_type;location;lat;lon;timestamp;P1;durP1;ratioP1;P2;durP2;ratioP2
6997;SDS011;3539;47.982;12.238;2022-12-07T00:02:19;11.37;;;9.67;;
6997;SDS011;3539;47.982;12.238;2022-12-07T00:04:46;10.97;;;9.83;;
6997;SDS011;3539;47.982;12.238;2022-12-07T00:07:17;10.80;;;9.70;;
6997;SDS011;3539;47.982;12.238;2022-12-07T00:09:45;11.40;;;10.20;;
6997;SDS011;3539;47.982;12.238;2022-12-07T00:12:13;10.73;;;9.57;;
6997;SDS011;3539;47.982;12.238;2022-12-07T00:14:39;10.87;;;9.57;;
6997;SDS011;3539;47.982;12.238;2022-12-07T00:17:06;11.57;;;10.33;;
6997;SDS011;3539;47.982;12.238;2022-12-07T00:19:33;12.63;;;10.53;;
6997;SDS011;3539;47.982;12.238;2022-12-07T00:22:00;13.07;;;10.70;;
6997;SDS011;3539;47.982;12.238;2022-12-07T00:24:27;13.03;;;11.00;;
6997;SDS011;3539;47.982;12.238;2022-12-07T00:26:55;12.40;;;11.10;;
6997;SDS011;3539;47.982;12.238;2022-12-07T00:29:22;13.17;;;11.30;;
6997;SDS011;3539;47.982;12.238;2022-12-07T00:31:59;13.37;;;11.07;;
6997;SDS011;3539;47.982;12.238;2022-12-07T00:34:26;12.63;;;11.07;;
6997;SDS011;3539;47.982;12.238;2022-12-07T00:36:53;14.70;;;11.83;;
6997;SDS011;3539;47.982;12.238;2022-12-07T00:39:19;15.27;;;11.63;;
6997;SDS011;3539;47.982;12.238;2022-12-07T00:41:46;15.83;;;11.93;;
6997;SDS011;3539;47.982;12.238;2022-12-07T00:44:16;15.00;;;11.63;;
6997;SDS011;3539;47.982;12.238;2022-12-07T00:46:43;13.90;;;11.33;;
6997;SDS011;3539;47.982;12.238;2022-12-07T00:49:10;14.10;;;12.07;;
6997;SDS011;3539;47.982;12.238;2022-12-07T00:51:39;16.63;;;13.13;;
6997;SDS011;3539;47.982;12.238;2022-12-07T00:54:06;13.80;;;11.40;;
6997;SDS011;3539;47.982;12.238;2022-12-07T00:56:33;16.07;;;12.17;;
6997;SDS011;3539;47.982;12.238;2022-12-07T00:59:00;16.13;;;12.83;;
6997;SDS011;3539;47.982;12.238;2022-12-07T01:01:32;14.43;;;12.30;;
6997;SDS011;3539;47.982;12.238;2022-12-07T01:04:02;14.03;;;12.23;;
6997;SDS011;3539;47.982;12.238;2022-12-07T01:06:29;14.93;;;12.47;;
6997;SDS011;3539;47.982;12.238;2022-12-07T01:08:56;13.83;;;11.80;;
6997;SDS011;3539;47.982;12.238;2022-12-07T01:11:24;15.77;;;13.20;;
6997;SDS011;3539;47.982;12.238;2022-12-07T01:13:51;15.80;;;12.60;;
6997;SDS011;3539;47.982;12.238;2022-12-07T01:16:20;14.23;;;12.23;;
6997;SDS011;3539;47.982;12.238;2022-12-07T01:18:50;15.37;;;13.00;;
6997;SDS011;3539;47.982;12.238;2022-12-07T01:21:19;17.13;;;12.93;;
6997;SDS011;3539;47.982;12.238;2022-12-07T01:23:47;17.97;;;13.40;;
6997;SDS011;3539;47.982;12.238;2022-12-07T01:26:15;16.33;;;13.73;;
6997;SDS011;3539;47.982;12.238;2022-12-07T01:28:44;18.20;;;13.17;;
6997;SDS011;3539;47.982;12.238;2022-12-07T01:31:14;17.27;;;13.07;;
6997;SDS011;3539;47.982;12.238;2022-12-07T01:33:42;16.53;;;12.50;;
6997;SDS011;3539;47.982;12.238;2022-12-07T01:36:14;14.57;;;12.30;;
6997;SDS011;3539;47.982;12.238;2022-12-07T01:38:42;15.93;;;12.37;;
6997;SDS011;3539;47.982;12.238;2022-12-07T01:41:09;15.30;;;12.57;;
6997;SDS011;3539;47.982;12.238;2022-12-07T01:43:36;14.93;;;12.03;;
6997;SDS011;3539;47.982;12.238;2022-12-07T01:46:03;14.13;;;11.37;;
6997;SDS011;3539;47.982;12.238;2022-12-07T01:48:31;14.37;;;11.70;;
6997;SDS011;3539;47.982;12.238;2022-12-07T01:51:01;14.20;;;11.80;;
6997;SDS011;3539;47.982;12.238;2022-12-07T01:53:31;13.93;;;11.80;;
6997;SDS011;3539;47.982;12.238;2022-12-07T01:56:00;17.77;;;11.60;;
6997;SDS011;3539;47.982;12.238;2022-12-07T01:58:29;13.40;;;11.70;;
6997;SDS011;3539;47.982;12.238;2022-12-07T02:00:55;14.27;;;11.77;;
6997;SDS011;3539;47.982;12.238;2022-12-07T02:03:24;12.70;;;11.37;;
6997;SDS011;3539;47.982;12.238;2022-12-07T02:05:54;13.27;;;10.90;;
6997;SDS011;3539;47.982;12.238;2022-12-07T02:08:24;13.90;;;10.87;;
6997;SDS011;3539;47.982;12.238;2022-12-07T02:10:54;12.80;;;10.77;;
6997;SDS011;3539;47.982;12.238;2022-12-07T02:13:22;12.97;;;10.63;;
6997;SDS011;3539;47.982;12.238;2022-12-07T02:16:01;13.40;;;11.37;;
6997;SDS011;3539;47.982;12.238;2022-12-07T02:18:43;12.73;;;10.37;;
6997;SDS011;3539;47.982;12.238;2022-12-07T02:21:16;11.67;;;10.43;;
6997;SDS011;3539;47.982;12.238;2022-12-07T02:26:47;13.77;;;11.03;;
6997;SDS011;3539;47.982;12.238;2022-12-07T02:29:37;12.30;;;10.90;;
6997;SDS011;3539;47.982;12.238;2022-12-07T02:32:07;12.97;;;10.70;;
6997;SDS011;3539;47.982;12.238;2022-12-07T02:34:39;12.57;;;10.80;;
6997;SDS011;3539;47.982;12.238;2022-12-07T02:37:10;14.43;;;11.30;;
6997;SDS011;3539;47.982;12.238;2022-12-07T02:39:46;12.43;;;11.10;;
6997;SDS011;3539;47.982;12.238;2022-12-07T02:42:17;12.73;;;11.03;;
6997;SDS011;3539;47.982;12.238;2022-12-07T02:44:47;13.17;;;10.70;;
6997;SDS011;3539;47.982;12.238;2022-12-07T02:47:14;12.97;;;10.30;;
6997;SDS011;3539;47.982;12.238;2022-12-07T02:49:42;12.23;;;10.63;;
6997;SDS011;3539;47.982;12.238;2022-12-07T02:52:09;13.03;;;10.20;;
6997;SDS011;3539;47.982;12.238;2022-12-07T02:54:36;13.80;;;10.50;;
6997;SDS011;3539;47.982;12.238;2022-12-07T02:57:06;11.63;;;9.67;;
6997;SDS011;3539;47.982;12.238;2022-12-07T02:59:43;13.40;;;10.80;;
6997;SDS011;3539;47.982;12.238;2022-12-07T03:02:20;12.33;;;10.63;;
6997;SDS011;3539;47.982;12.238;2022-12-07T03:04:56;13.23;;;10.47;;
6997;SDS011;3539;47.982;12.238;2022-12-07T03:07:30;15.50;;;11.40;;
6997;SDS011;3539;47.982;12.238;2022-12-07T03:10:00;13.87;;;11.37;;
6997;SDS011;3539;47.982;12.238;2022-12-07T03:12:31;14.27;;;11.80;;
6997;SDS011;3539;47.982;12.238;2022-12-07T03:15:03;14.10;;;11.43;;
6997;SDS011;3539;47.982;12.238;2022-12-07T03:17:33;13.07;;;10.93;;
6997;SDS011;3539;47.982;12.238;2022-12-07T03:20:03;13.23;;;11.37;;
6997;SDS011;3539;47.982;12.238;2022-12-07T03:22:31;13.00;;;10.97;;
6997;SDS011;3539;47.982;12.238;2022-12-07T03:25:01;13.07;;;11.03;;
6997;SDS011;3539;47.982;12.238;2022-12-07T03:27:31;13.80;;;11.33;;
6997;SDS011;3539;47.982;12.238;2022-12-07T03:30:03;14.20;;;11.57;;
6997;SDS011;3539;47.982;12.238;2022-12-07T03:32:32;12.37;;;10.20;;
6997;SDS011;3539;47.982;12.238;2022-12-07T03:35:03;12.57;;;10.90;;
6997;SDS011;3539;47.982;12.238;2022-12-07T03:37:33;12.37;;;10.73;;
6997;SDS011;3539;47.982;12.238;2022-12-07T03:40:03;13.80;;;10.93;;
6997;SDS011;3539;47.982;12.238;2022-12-07T03:42:37;12.07;;;10.30;;
6997;SDS011;3539;47.982;12.238;2022-12-07T03:45:06;13.03;;;11.10;;
6997;SDS011;3539;47.982;12.238;2022-12-07T03:47:34;11.80;;;10.10;;
6997;SDS011;3539;47.982;12.238;2022-12-07T03:50:06;13.77;;;11.33;;
6997;SDS011;3539;47.982;12.238;2022-12-07T03:52:36;12.87;;;10.73;;
6997;SDS011;3539;47.982;12.238;2022-12-07T03:55:06;13.70;;;10.83;;
6997;SDS011;3539;47.982;12.238;2022-12-07T03:57:36;12.23;;;10.60;;
6997;SDS011;3539;47.982;12.238;2022-12-07T04:00:06;13.03;;;10.90;;
6997;SDS011;3539;47.982;12.238;2022-12-07T04:02:33;12.33;;;11.07;;
6997;SDS011;3539;47.982;12.238;2022-12-07T04:05:00;12.47;;;10.40;;
6997;SDS011;3539;47.982;12.238;2022-12-07T04:07:27;12.83;;;10.90;;
6997;SDS011;3539;47.982;12.238;2022-12-07T04:09:54;12.10;;;10.73;;
6997;SDS011;3539;47.982;12.238;2022-12-07T04:12:21;11.90;;;10.70;;
6997;SDS011;3539;47.982;12.238;2022-12-07T04:14:48;13.87;;;11.40;;
6997;SDS011;3539;47.982;12.238;2022-12-07T04:17:16;14.43;;;10.60;;
6997;SDS011;3539;47.982;12.238;2022-12-07T04:19:43;11.40;;;10.20;;
6997;SDS011;3539;47.982;12.238;2022-12-07T04:22:10;12.03;;;10.37;;
6997;SDS011;3539;47.982;12.238;2022-12-07T04:24:36;12.03;;;10.77;;
6997;SDS011;3539;47.982;12.238;2022-12-07T04:27:03;11.73;;;10.63;;
6997;SDS011;3539;47.982;12.238;2022-12-07T04:29:30;12.17;;;10.60;;
6997;SDS011;3539;47.982;12.238;2022-12-07T04:31:56;11.60;;;10.40;;
6997;SDS011;3539;47.982;12.238;2022-12-07T04:34:25;12.50;;;10.83;;
6997;SDS011;3539;47.982;12.238;2022-12-07T04:36:51;12.37;;;10.97;;
6997;SDS011;3539;47.982;12.238;2022-12-07T04:39:19;12.10;;;10.73;;
6997;SDS011;3539;47.982;12.238;2022-12-07T04:41:47;13.50;;;11.47;;
6997;SDS011;3539;47.982;12.238;2022-12-07T04:44:14;13.40;;;11.90;;
6997;SDS011;3539;47.982;12.238;2022-12-07T04:46:41;13.50;;;11.40;;
6997;SDS011;3539;47.982;12.238;2022-12-07T04:49:08;14.37;;;11.87;;
6997;SDS011;3539;47.982;12.238;2022-12-07T04:51:37;14.17;;;10.83;;
6997;SDS011;3539;47.982;12.238;2022-12-07T04:54:03;14.10;;;11.67;;
6997;SDS011;3539;47.982;12.238;2022-12-07T04:56:31;15.77;;;12.37;;
6997;SDS011;3539;47.982;12.238;2022-12-07T04:58:58;14.07;;;10.70;;
6997;SDS011;3539;47.982;12.238;2022-12-07T05:01:24;13.90;;;12.13;;
6997;SDS011;3539;47.982;12.238;2022-12-07T05:03:51;15.50;;;11.37;;
6997;SDS011;3539;47.982;12.238;2022-12-07T05:06:19;13.53;;;12.10;;
6997;SDS011;3539;47.982;12.238;2022-12-07T05:08:47;11.80;;;10.30;;
6997;SDS011;3539;47.982;12.238;2022-12-07T05:11:14;14.03;;;10.83;;
6997;SDS011;3539;47.982;12.238;2022-12-07T05:14:01;14.97;;;12.20;;
6997;SDS011;3539;47.982;12.238;2022-12-07T05:16:28;15.10;;;11.73;;
6997;SDS011;3539;47.982;12.238;2022-12-07T05:18:54;15.33;;;12.40;;
6997;SDS011;3539;47.982;12.238;2022-12-07T05:21:21;15.27;;;12.17;;
6997;SDS011;3539;47.982;12.238;2022-12-07T05:23:50;17.60;;;12.67;;
6997;SDS011;3539;47.982;12.238;2022-12-07T05:26:16;14.97;;;11.27;;
6997;SDS011;3539;47.982;12.238;2022-12-07T05:28:43;16.47;;;12.87;;
6997;SDS011;3539;47.982;12.238;2022-12-07T05:31:10;14.40;;;11.93;;
6997;SDS011;3539;47.982;12.238;2022-12-07T05:33:37;14.40;;;12.03;;
6997;SDS011;3539;47.982;12.238;2022-12-07T05:36:04;24.43;;;15.33;;
6997;SDS011;3539;47.982;12.238;2022-12-07T05:38:32;78.70;;;31.97;;
6997;SDS011;3539;47.982;12.238;2022-12-07T05:41:01;99.63;;;35.03;;
6997;SDS011;3539;47.982;12.238;2022-12-07T05:43:28;58.20;;;25.73;;
6997;SDS011;3539;47.982;12.238;2022-12-07T05:45:55;29.40;;;17.40;;
6997;SDS011;3539;47.982;12.238;2022-12-07T05:48:22;17.67;;;13.17;;
6997;SDS011;3539;47.982;12.238;2022-12-07T05:50:49;21.33;;;15.47;;
6997;SDS011;3539;47.982;12.238;2022-12-07T05:53:17;17.27;;;13.10;;
6997;SDS011;3539;47.982;12.238;2022-12-07T05:55:44;16.27;;;12.40;;
6997;SDS011;3539;47.982;12.238;2022-12-07T05:58:12;15.23;;;11.90;;
6997;SDS011;3539;47.982;12.238;2022-12-07T06:00:56;12.87;;;11.30;;
6997;SDS011;3539;47.982;12.238;2022-12-07T06:03:23;21.53;;;16.73;;
6997;SDS011;3539;47.982;12.238;2022-12-07T06:05:51;14.03;;;12.10;;
6997;SDS011;3539;47.982;12.238;2022-12-07T06:08:18;12.63;;;11.00;;
6997;SDS011;3539;47.982;12.238;2022-12-07T06:10:46;13.77;;;10.97;;
6997;SDS011;3539;47.982;12.238;2022-12-07T06:13:36;13.40;;;11.30;;
6997;SDS011;3539;47.982;12.238;2022-12-07T06:16:02;13.23;;;11.83;;
6997;SDS011;3539;47.982;12.238;2022-12-07T06:18:28;14.97;;;12.20;;
6997;SDS011;3539;47.982;12.238;2022-12-07T06:20:55;13.63;;;11.70;;
6997;SDS011;3539;47.982;12.238;2022-12-07T06:23:22;13.63;;;10.37;;
6997;SDS011;3539;47.982;12.238;2022-12-07T06:25:48;12.97;;;11.23;;
6997;SDS011;3539;47.982;12.238;2022-12-07T06:28:15;12.87;;;11.13;;
6997;SDS011;3539;47.982;12.238;2022-12-07T06:30:43;12.87;;;11.40;;
6997;SDS011;3539;47.982;12.238;2022-12-07T06:33:10;12.67;;;11.17;;
6997;SDS011;3539;47.982;12.238;2022-12-07T06:35:37;13.60;;;11.60;;
6997;SDS011;3539;47.982;12.238;2022-12-07T06:38:04;13.43;;;11.50;;
6997;SDS011;3539;47.982;12.238;2022-12-07T06:40:32;18.63;;;14.33;;
6997;SDS011;3539;47.982;12.238;2022-12-07T06:43:02;17.13;;;15.30;;
6997;SDS011;3539;47.982;12.238;2022-12-07T06:45:38;14.57;;;12.57;;
6997;SDS011;3539;47.982;12.238;2022-12-07T06:48:15;15.90;;;14.20;;
6997;SDS011;3539;47.982;12.238;2022-12-07T06:50:50;15.77;;;12.93;;
6997;SDS011;3539;47.982;12.238;2022-12-07T06:53:31;16.33;;;14.20;;
6997;SDS011;3539;47.982;12.238;2022-12-07T06:56:09;16.73;;;13.70;;
6997;SDS011;3539;47.982;12.238;2022-12-07T06:58:40;16.67;;;12.50;;
6997;SDS011;3539;47.982;12.238;2022-12-07T07:01:11;19.83;;;15.27;;
6997;SDS011;3539;47.982;12.238;2022-12-07T07:03:40;18.40;;;13.80;;
6997;SDS011;3539;47.982;12.238;2022-12-07T07:06:07;21.00;;;14.83;;
6997;SDS011;3539;47.982;12.238;2022-12-07T07:08:34;19.60;;;14.30;;
6997;SDS011;3539;47.982;12.238;2022-12-07T07:11:01;21.53;;;15.23;;
6997;SDS011;3539;47.982;12.238;2022-12-07T07:13:29;21.63;;;15.47;;
6997;SDS011;3539;47.982;12.238;2022-12-07T07:15:57;19.10;;;15.57;;
6997;SDS011;3539;47.982;12.238;2022-12-07T07:18:26;21.13;;;15.97;;
6997;SDS011;3539;47.982;12.238;2022-12-07T07:21:07;23.60;;;15.57;;
6997;SDS011;3539;47.982;12.238;2022-12-07T07:23:38;22.07;;;16.03;;
6997;SDS011;3539;47.982;12.238;2022-12-07T07:26:07;22.80;;;16.73;;
6997;SDS011;3539;47.982;12.238;2022-12-07T07:28:44;22.40;;;15.60;;
6997;SDS011;3539;47.982;12.238;2022-12-07T07:31:21;23.00;;;15.50;;
6997;SDS011;3539;47.982;12.238;2022-12-07T07:33:51;21.33;;;15.87;;
6997;SDS011;3539;47.982;12.238;2022-12-07T07:36:23;25.17;;;18.50;;
6997;SDS011;3539;47.982;12.238;2022-12-07T07:38:51;25.77;;;18.60;;
6997;SDS011;3539;47.982;12.238;2022-12-07T07:41:27;26.87;;;17.00;;
6997;SDS011;3539;47.982;12.238;2022-12-07T07:43:59;23.30;;;16.60;;
6997;SDS011;3539;47.982;12.238;2022-12-07T07:46:29;22.63;;;15.73;;
6997;SDS011;3539;47.982;12.238;2022-12-07T07:48:58;29.40;;;20.53;;
6997;SDS011;3539;47.982;12.238;2022-12-07T07:51:40;44.30;;;24.47;;
6997;SDS011;3539;47.982;12.238;2022-12-07T07:54:07;39.77;;;24.67;;
6997;SDS011;3539;47.982;12.238;2022-12-07T07:56:34;30.87;;;19.67;;
6997;SDS011;3539;47.982;12.238;2022-12-07T07:59:03;38.20;;;22.20;;
6997;SDS011;3539;47.982;12.238;2022-12-07T08:01:36;27.70;;;19.03;;
6997;SDS011;3539;47.982;12.238;2022-12-07T08:04:05;25.77;;;18.30;;
6997;SDS011;3539;47.982;12.238;2022-12-07T08:06:32;22.63;;;16.43;;
6997;SDS011;3539;47.982;12.238;2022-12-07T08:09:06;26.10;;;17.43;;
6997;SDS011;3539;47.982;12.238;2022-12-07T08:11:36;24.60;;;15.73;;
6997;SDS011;3539;47.982;12.238;2022-12-07T08:14:03;24.20;;;15.77;;
6997;SDS011;3539;47.982;12.238;2022-12-07T08:16:30;25.70;;;16.50;;
6997;SDS011;3539;47.982;12.238;2022-12-07T08:18:58;26.67;;;17.73;;
6997;SDS011;3539;47.982;12.238;2022-12-07T08:21:37;27.10;;;18.30;;
6997;SDS011;3539;47.982;12.238;2022-12-07T08:24:14;24.07;;;16.80;;
6997;SDS011;3539;47.982;12.238;2022-12-07T08:26:46;25.93;;;17.70;;
6997;SDS011;3539;47.982;12.238;2022-12-07T08:29:19;23.80;;;17.03;;
6997;SDS011;3539;47.982;12.238;2022-12-07T08:31:51;24.50;;;16.63;;
6997;SDS011;3539;47.982;12.238;2022-12-07T08:34:28;24.23;;;16.73;;
6997;SDS011;3539;47.982;12.238;2022-12-07T08:37:00;26.67;;;17.60;;
6997;SDS011;3539;47.982;12.238;2022-12-07T08:39:28;25.07;;;17.93;;
6997;SDS011;3539;47.982;12.238;2022-12-07T08:41:58;25.87;;;17.03;;
6997;SDS011;3539;47.982;12.238;2022-12-07T08:44:48;23.23;;;16.60;;
6997;SDS011;3539;47.982;12.238;2022-12-07T08:47:29;26.63;;;18.13;;
6997;SDS011;3539;47.982;12.238;2022-12-07T08:49:58;24.97;;;17.73;;
6997;SDS011;3539;47.982;12.238;2022-12-07T08:52:31;24.27;;;16.80;;
6997;SDS011;3539;47.982;12.238;2022-12-07T08:55:05;26.17;;;18.60;;
6997;SDS011;3539;47.982;12.238;2022-12-07T08:57:38;27.83;;;18.93;;
6997;SDS011;3539;47.982;12.238;2022-12-07T09:00:21;28.80;;;19.40;;
6997;SDS011;3539;47.982;12.238;2022-12-07T09:03:02;27.00;;;18.43;;
6997;SDS011;3539;47.982;12.238;2022-12-07T09:05:37;23.77;;;17.07;;
6997;SDS011;3539;47.982;12.238;2022-12-07T09:08:05;26.40;;;18.23;;
6997;SDS011;3539;47.982;12.238;2022-12-07T09:10:34;25.77;;;20.33;;
6997;SDS011;3539;47.982;12.238;2022-12-07T09:13:03;26.00;;;18.37;;
6997;SDS011;3539;47.982;12.238;2022-12-07T09:15:40;27.13;;;19.47;;
6997;SDS011;3539;47.982;12.238;2022-12-07T09:18:19;29.67;;;19.93;;
6997;SDS011;3539;47.982;12.238;2022-12-07T09:21:06;28.53;;;20.57;;
6997;SDS011;3539;47.982;12.238;2022-12-07T09:23:38;30.67;;;21.17;;
6997;SDS011;3539;47.982;12.238;2022-12-07T09:26:11;33.30;;;22.67;;
6997;SDS011;3539;47.982;12.238;2022-12-07T09:28:40;35.57;;;23.47;;
6997;SDS011;3539;47.982;12.238;2022-12-07T09:31:10;26.43;;;19.97;;
6997;SDS011;3539;47.982;12.238;2022-12-07T09:33:40;23.60;;;17.97;;
6997;SDS011;3539;47.982;12.238;2022-12-07T09:36:13;24.13;;;17.20;;
6997;SDS011;3539;47.982;12.238;2022-12-07T09:38:55;22.13;;;17.33;;
6997;SDS011;3539;47.982;12.238;2022-12-07T09:41:38;23.33;;;18.17;;
6997;SDS011;3539;47.982;12.238;2022-12-07T09:44:12;25.83;;;19.53;;
6997;SDS011;3539;47.982;12.238;2022-12-07T09:46:41;42.10;;;29.70;;
6997;SDS011;3539;47.982;12.238;2022-12-07T09:49:13;43.53;;;24.87;;
6997;SDS011;3539;47.982;12.238;2022-12-07T09:51:45;28.30;;;22.03;;
6997;SDS011;3539;47.982;12.238;2022-12-07T09:54:13;24.83;;;19.37;;
6997;SDS011;3539;47.982;12.238;2022-12-07T09:56:50;22.90;;;17.60;;
6997;SDS011;3539;47.982;12.238;2022-12-07T09:59:24;23.13;;;17.93;;
6997;SDS011;3539;47.982;12.238;2022-12-07T10:02:04;22.73;;;16.53;;
6997;SDS011;3539;47.982;12.238;2022-12-07T10:04:51;43.43;;;25.73;;
6997;SDS011;3539;47.982;12.238;2022-12-07T10:07:25;24.30;;;20.77;;
6997;SDS011;3539;47.982;12.238;2022-12-07T10:09:55;25.53;;;20.30;;
6997;SDS011;3539;47.982;12.238;2022-12-07T10:12:27;32.57;;;25.20;;
6997;SDS011;3539;47.982;12.238;2022-12-07T10:14:59;26.67;;;21.97;;
6997;SDS011;3539;47.982;12.238;2022-12-07T10:17:40;28.77;;;23.67;;
6997;SDS011;3539;47.982;12.238;2022-12-07T10:20:13;24.47;;;21.87;;
6997;SDS011;3539;47.982;12.238;2022-12-07T10:22:59;20.60;;;17.90;;
6997;SDS011;3539;47.982;12.238;2022-12-07T10:25:36;22.60;;;17.30;;
6997;SDS011;3539;47.982;12.238;2022-12-07T10:28:19;20.03;;;15.57;;
6997;SDS011;3539;47.982;12.238;2022-12-07T10:30:55;18.03;;;15.33;;
6997;SDS011;3539;47.982;12.238;2022-12-07T10:33:34;20.73;;;15.03;;
6997;SDS011;3539;47.982;12.238;2022-12-07T10:36:29;16.90;;;15.00;;
6997;SDS011;3539;47.982;12.238;2022-12-07T10:39:13;15.53;;;13.83;;
6997;SDS011;3539;47.982;12.238;2022-12-07T10:41:53;14.80;;;13.37;;
6997;SDS011;3539;47.982;12.238;2022-12-07T10:47:26;35.90;;;27.90;;
6997;SDS011;3539;47.982;12.238;2022-12-07T10:50:12;20.60;;;17.73;;
6997;SDS011;3539;47.982;12.238;2022-12-07T10:53:01;15.70;;;14.03;;
6997;SDS011;3539;47.982;12.238;2022-12-07T10:55:53;16.00;;;13.67;;
6997;SDS011;3539;47.982;12.238;2022-12-07T10:58:39;17.17;;;13.57;;
6997;SDS011;3539;47.982;12.238;2022-12-07T11:01:28;15.33;;;13.47;;
6997;SDS011;3539;47.982;12.238;2022-12-07T11:04:14;15.50;;;12.83;;
6997;SDS011;3539;47.982;12.238;2022-12-07T11:06:57;14.33;;;12.37;;
6997;SDS011;3539;47.982;12.238;2022-12-07T11:12:46;18.83;;;13.33;;
6997;SDS011;3539;47.982;12.238;2022-12-07T11:15:24;19.90;;;14.57;;
6997;SDS011;3539;47.982;12.238;2022-12-07T11:18:00;16.00;;;12.73;;
6997;SDS011;3539;47.982;12.238;2022-12-07T11:20:38;13.47;;;12.07;;
6997;SDS011;3539;47.982;12.238;2022-12-07T11:23:18;14.07;;;11.17;;
6997;SDS011;3539;47.982;12.238;2022-12-07T11:25:57;14.80;;;12.83;;
6997;SDS011;3539;47.982;12.238;2022-12-07T11:28:44;15.40;;;13.20;;
6997;SDS011;3539;47.982;12.238;2022-12-07T11:31:24;14.30;;;12.10;;
6997;SDS011;3539;47.982;12.238;2022-12-07T11:34:08;13.93;;;11.50;;
6997;SDS011;3539;47.982;12.238;2022-12-07T11:36:51;13.73;;;12.00;;
6997;SDS011;3539;47.982;12.238;2022-12-07T11:39:33;13.47;;;11.50;;
6997;SDS011;3539;47.982;12.238;2022-12-07T11:42:06;12.50;;;10.90;;
6997;SDS011;3539;47.982;12.238;2022-12-07T11:44:45;12.40;;;11.03;;
6997;SDS011;3539;47.982;12.238;2022-12-07T11:47:28;12.47;;;11.03;;
6997;SDS011;3539;47.982;12.238;2022-12-07T11:50:09;10.90;;;9.83;;
6997;SDS011;3539;47.982;12.238;2022-12-07T11:52:57;10.90;;;9.80;;
6997;SDS011;3539;47.982;12.238;2022-12-07T11:55:34;11.07;;;10.00;;
6997;SDS011;3539;47.982;12.238;2022-12-07T11:58:19;11.73;;;10.30;;
6997;SDS011;3539;47.982;12.238;2022-12-07T12:01:06;11.13;;;10.13;;
6997;SDS011;3539;47.982;12.238;2022-12-07T12:03:44;11.50;;;10.30;;
6997;SDS011;3539;47.982;12.238;2022-12-07T12:06:28;10.97;;;9.33;;
6997;SDS011;3539;47.982;12.238;2022-12-07T12:09:12;9.87;;;8.87;;
6997;SDS011;3539;47.982;12.238;2022-12-07T12:11:55;10.83;;;9.60;;
6997;SDS011;3539;47.982;12.238;2022-12-07T12:14:46;10.20;;;9.20;;
6997;SDS011;3539;47.982;12.238;2022-12-07T12:20:37;10.57;;;9.57;;
6997;SDS011;3539;47.982;12.238;2022-12-07T12:23:12;11.03;;;9.93;;
6997;SDS011;3539;47.982;12.238;2022-12-07T12:25:41;10.97;;;9.87;;
6997;SDS011;3539;47.982;12.238;2022-12-07T12:28:22;10.77;;;9.67;;
6997;SDS011;3539;47.982;12.238;2022-12-07T12:31:05;10.67;;;9.13;;
6997;SDS011;3539;47.982;12.238;2022-12-07T12:33:44;10.10;;;9.10;;
6997;SDS011;3539;47.982;12.238;2022-12-07T12:36:17;10.37;;;9.30;;
6997;SDS011;3539;47.982;12.238;2022-12-07T12:38:51;10.67;;;9.53;;
6997;SDS011;3539;47.982;12.238;2022-12-07T12:44:39;10.90;;;9.83;;
6997;SDS011;3539;47.982;12.238;2022-12-07T12:50:20;11.17;;;10.07;;
6997;SDS011;3539;47.982;12.238;2022-12-07T12:53:00;11.47;;;10.27;;
6997;SDS011;3539;47.982;12.238;2022-12-07T12:55:54;11.33;;;10.17;;
6997;SDS011;3539;47.982;12.238;2022-12-07T12:58:33;12.53;;;11.20;;
6997;SDS011;3539;47.982;12.238;2022-12-07T13:04:16;12.00;;;10.67;;
6997;SDS011;3539;47.982;12.238;2022-12-07T13:07:01;13.33;;;12.03;;
6997;SDS011;3539;47.982;12.238;2022-12-07T13:09:29;16.97;;;14.60;;
6997;SDS011;3539;47.982;12.238;2022-12-07T13:12:01;19.50;;;15.50;;
6997;SDS011;3539;47.982;12.238;2022-12-07T13:14:43;13.43;;;11.77;;
6997;SDS011;3539;47.982;12.238;2022-12-07T13:20:46;22.70;;;17.07;;
6997;SDS011;3539;47.982;12.238;2022-12-07T13:23:23;12.83;;;11.27;;
6997;SDS011;3539;47.982;12.238;2022-12-07T13:25:54;11.23;;;9.80;;
6997;SDS011;3539;47.982;12.238;2022-12-07T13:28:25;11.70;;;10.13;;
6997;SDS011;3539;47.982;12.238;2022-12-07T13:30:58;10.90;;;9.80;;
6997;SDS011;3539;47.982;12.238;2022-12-07T13:33:30;11.07;;;9.73;;
6997;SDS011;3539;47.982;12.238;2022-12-07T13:36:27;11.97;;;10.63;;
6997;SDS011;3539;47.982;12.238;2022-12-07T13:39:10;11.83;;;9.40;;
6997;SDS011;3539;47.982;12.238;2022-12-07T13:41:41;10.20;;;9.20;;
6997;SDS011;3539;47.982;12.238;2022-12-07T13:44:14;10.60;;;9.60;;
6997;SDS011;3539;47.982;12.238;2022-12-07T13:46:44;10.20;;;9.17;;
6997;SDS011;3539;47.982;12.238;2022-12-07T13:49:17;11.17;;;10.07;;
6997;SDS011;3539;47.982;12.238;2022-12-07T13:51:46;11.07;;;9.73;;
6997;SDS011;3539;47.982;12.238;2022-12-07T13:54:17;10.77;;;9.67;;
6997;SDS011;3539;47.982;12.238;2022-12-07T13:56:47;9.63;;;8.47;;
6997;SDS011;3539;47.982;12.238;2022-12-07T13:59:17;12.83;;;11.47;;
6997;SDS011;3539;47.982;12.238;2022-12-07T14:01:46;14.97;;;12.50;;
6997;SDS011;3539;47.982;12.238;2022-12-07T14:04:29;11.60;;;9.63;;
6997;SDS011;3539;47.982;12.238;2022-12-07T14:06:57;14.67;;;12.47;;
6997;SDS011;3539;47.982;12.238;2022-12-07T14:09:26;10.63;;;9.57;;
6997;SDS011;3539;47.982;12.238;2022-12-07T14:11:54;10.53;;;9.43;;
6997;SDS011;3539;47.982;12.238;2022-12-07T14:14:24;10.23;;;9.20;;
6997;SDS011;3539;47.982;12.238;2022-12-07T14:16:58;10.23;;;9.20;;
6997;SDS011;3539;47.982;12.238;2022-12-07T14:19:47;9.67;;;8.67;;
6997;SDS011;3539;47.982;12.238;2022-12-07T14:22:27;9.50;;;8.60;;
6997;SDS011;3539;47.982;12.238;2022-12-07T14:24:59;9.87;;;8.87;;
6997;SDS011;3539;47.982;12.238;2022-12-07T14:30:38;10.53;;;9.03;;
6997;SDS011;3539;47.982;12.238;2022-12-07T14:33:40;10.83;;;9.60;;
6997;SDS011;3539;47.982;12.238;2022-12-07T14:36:24;10.30;;;9.30;;
6997;SDS011;3539;47.982;12.238;2022-12-07T14:39:09;10.90;;;9.80;;
6997;SDS011;3539;47.982;12.238;2022-12-07T14:41:38;9.90;;;8.90;;
6997;SDS011;3539;47.982;12.238;2022-12-07T14:44:30;9.83;;;8.83;;
6997;SDS011;3539;47.982;12.238;2022-12-07T14:47:23;10.13;;;9.13;;
6997;SDS011;3539;47.982;12.238;2022-12-07T14:50:11;10.37;;;9.33;;
6997;SDS011;3539;47.982;12.238;2022-12-07T14:52:43;10.53;;;9.43;;
6997;SDS011;3539;47.982;12.238;2022-12-07T14:55:22;10.87;;;9.17;;
6997;SDS011;3539;47.982;12.238;2022-12-07T14:57:55;73.07;;;44.70;;
6997;SDS011;3539;47.982;12.238;2022-12-07T15:00:32;13.33;;;11.77;;
6997;SDS011;3539;47.982;12.238;2022-12-07T15:03:15;15.47;;;13.53;;
6997;SDS011;3539;47.982;12.238;2022-12-07T15:05:54;16.67;;;14.87;;
6997;SDS011;3539;47.982;12.238;2022-12-07T15:08:32;15.83;;;14.23;;
6997;SDS011;3539;47.982;12.238;2022-12-07T15:11:24;12.57;;;11.40;;
6997;SDS011;3539;47.982;12.238;2022-12-07T15:14:27;15.83;;;14.33;;
6997;SDS011;3539;47.982;12.238;2022-12-07T15:16:58;12.63;;;11.43;;
6997;SDS011;3539;47.982;12.238;2022-12-07T15:19:32;11.37;;;10.27;;
6997;SDS011;3539;47.982;12.238;2022-12-07T15:22:16;10.57;;;9.47;;
6997;SDS011;3539;47.982;12.238;2022-12-07T15:24:57;10.47;;;9.17;;
6997;SDS011;3539;47.982;12.238;2022-12-07T15:27:39;10.20;;;9.20;;
6997;SDS011;3539;47.982;12.238;2022-12-07T15:30:14;11.80;;;9.73;;
6997;SDS011;3539;47.982;12.238;2022-12-07T15:32:50;11.30;;;9.37;;
6997;SDS011;3539;47.982;12.238;2022-12-07T15:35:30;23.53;;;19.23;;
6997;SDS011;3539;47.982;12.238;2022-12-07T15:38:00;20.73;;;15.50;;
6997;SDS011;3539;47.982;12.238;2022-12-07T15:40:33;16.27;;;12.73;;